Time;durP1;ratioP1;P1;durP2;ratioP2;P2;SDS_P1;SDS_P2;PMS_P1;PMS_P2;Temp;Humidity;BMP_temperature;BMP_pressure;BME280_temperature;BME280_humidity;BME280_pressure;Samples;Min_cycle;Max_cycle;Signal;HPM_P1;HPM_P2
2021/03/21 00:01:09;;;;;;;15.88;10.77;;;6.10;99.90;;;5.39;91.91;102574.78;4183670;28;20535;-79
2021/03/21 00:03:11;;;;;;;16.30;10.80;;;6.00;99.90;;;5.47;91.86;102572.63;4175880;28;20052;-80
2021/03/21 00:05:12;;;;;;;17.00;10.57;;;6.00;99.90;;;5.57;90.19;102575.63;4179224;28;20079;-80
2021/03/21 00:07:13;;;;;;;16.20;10.27;;;6.00;99.90;;;5.61;90.71;102573.69;4183598;28;20053;-80
2021/03/21 00:09:14;;;;;;;15.90;10.50;;;6.00;99.90;;;5.58;90.66;102579.94;4173673;28;20021;-80
2021/03/21 00:11:15;;;;;;;19.25;11.52;;;6.00;99.90;;;5.65;90.06;102577.81;4184872;28;20112;-80
2021/03/21 00:13:17;;;;;;;14.88;10.20;;;6.00;99.90;;;5.59;90.63;102574.63;4183223;28;20025;-79
2021/03/21 00:15:19;;;;;;;14.88;10.50;;;6.10;99.90;;;5.43;91.11;102573.72;4184776;28;20044;-80
2021/03/21 00:17:20;;;;;;;15.82;10.07;;;6.10;99.90;;;5.47;90.99;102567.38;4183599;28;20535;-81
2021/03/21 00:19:21;;;;;;;14.68;9.80;;;6.10;99.90;;;5.38;91.41;102570.47;4184796;28;20035;-81
2021/03/21 00:21:22;;;;;;;18.52;11.23;;;6.10;99.90;;;5.38;90.95;102557.41;4184667;28;20504;-80
2021/03/21 00:23:24;;;;;;;14.48;9.65;;;6.00;99.90;;;5.43;91.74;102563.25;4183460;28;20577;-80
2021/03/21 00:25:27;;;;;;;16.67;11.27;;;6.00;99.90;;;5.52;90.84;102567.16;4172450;28;20033;-80
2021/03/21 00:27:28;;;;;;;17.77;10.95;;;6.00;99.90;;;5.44;91.83;102569.31;4176828;28;20033;-80
2021/03/21 00:29:29;;;;;;;14.63;9.35;;;6.00;99.90;;;5.45;91.80;102571.00;4183455;28;20064;-80
2021/03/21 00:31:30;;;;;;;17.15;11.20;;;6.00;99.90;;;5.33;91.92;102569.88;4184522;28;20032;-81
2021/03/21 00:33:34;;;;;;;16.40;9.50;;;5.90;99.90;;;5.50;91.70;102580.31;4184697;28;20036;-81
2021/03/21 00:35:35;;;;;;;;;;;5.90;99.90;;;5.30;92.32;102564.78;4183909;28;20033;-80
2021/03/21 00:37:39;;;;;;;14.18;9.98;;;6.00;99.90;;;5.38;92.60;102577.47;4179893;28;19912;-80
2021/03/21 00:39:39;;;;;;;13.73;9.65;;;5.90;99.90;;;5.18;92.17;102570.66;4182411;28;20021;-80
2021/03/21 00:41:40;;;;;;;19.73;11.13;;;5.90;99.90;;;5.31;91.94;102566.50;4174295;28;20032;-80
2021/03/21 00:43:41;;;;;;;19.23;11.13;;;5.80;99.90;;;5.41;91.29;102580.78;4178926;28;20082;-80
2021/03/21 00:45:42;;;;;;;16.08;10.55;;;5.90;99.90;;;5.41;91.55;102577.31;4183127;28;20087;-80
2021/03/21 00:47:43;;;;;;;14.40;10.07;;;5.80;99.90;;;5.42;91.49;102577.25;4187951;28;20018;-80
2021/03/21 00:49:44;;;;;;;17.42;10.88;;;5.80;99.90;;;5.44;91.20;102578.00;4186467;28;20048;-79
2021/03/21 00:51:46;;;;;;;14.45;10.25;;;5.80;99.90;;;5.36;91.02;102572.34;4177941;28;20036;-80
2021/03/21 00:53:46;;;;;;;17.73;11.00;;;5.80;99.90;;;5.28;91.23;102561.41;4182472;28;20055;-80
2021/03/21 00:55:49;;;;;;;16.60;10.90;;;5.80;99.90;;;5.41;91.57;102574.69;4186406;28;20021;-80
2021/03/21 00:57:50;;;;;;;14.48;10.18;;;5.90;99.90;;;5.43;90.91;102576.34;4174367;28;20029;-80
2021/03/21 00:59:51;;;;;;;18.83;11.02;;;5.90;99.90;;;5.23;91.90;102568.63;4178028;28;20025;-80
2021/03/21 01:01:51;;;;;;;16.75;10.65;;;5.90;99.90;;;5.29;92.16;102580.56;4202898;28;20062;-80
2021/03/21 01:03:53;;;;;;;18.73;11.60;;;5.80;99.90;;;5.22;92.21;102569.56;4186236;28;20535;-80
2021/03/21 01:06:03;;;;;;;17.38;11.05;;;5.80;99.90;;;5.23;93.00;102581.72;4174205;28;20029;-81
2021/03/21 01:08:21;;;;;;;18.63;11.48;;;5.70;99.90;;;5.16;92.16;102575.13;4179920;28;20032;-80
2021/03/21 01:10:26;;;;;;;18.45;11.50;;;5.70;99.90;;;5.19;92.95;102585.44;4187430;28;20032;-80
2021/03/21 01:12:27;;;;;;;18.00;11.23;;;5.60;99.90;;;5.15;93.91;102577.78;4186013;28;20025;-81
2021/03/21 01:14:28;;;;;;;17.48;11.05;;;5.50;99.90;;;5.30;91.72;102583.09;4177708;28;20095;-80
2021/03/21 01:16:35;;;;;;;15.50;10.32;;;5.60;99.90;;;5.24;92.51;102578.19;4180824;28;20551;-81
2021/03/21 01:18:37;;;;;;;17.25;11.18;;;5.50;99.90;;;5.15;92.49;102562.94;4185766;28;20043;-79
2021/03/21 01:20:37;;;;;;;16.77;11.23;;;5.50;99.90;;;5.19;93.02;102580.19;4175589;28;20025;-80
2021/03/21 01:22:38;;;;;;;15.88;9.90;;;5.50;99.90;;;5.24;92.47;102572.09;4187259;28;20033;-80
2021/03/21 01:24:40;;;;;;;15.30;10.13;;;5.50;99.90;;;5.13;91.57;102564.81;4187291;28;20506;-80
2021/03/21 01:26:41;;;;;;;14.73;10.32;;;5.40;99.90;;;5.09;92.37;102565.88;4185565;28;20514;-80
2021/03/21 01:28:43;;;;;;;17.30;11.07;;;5.40;99.90;;;5.10;89.93;102540.56;4157200;28;20022;-80
2021/03/21 01:30:44;;;;;;;14.68;10.95;;;5.40;99.90;;;5.23;89.28;102554.69;4187237;28;20476;-80
2021/03/21 01:32:45;;;;;;;19.00;10.70;;;5.50;99.90;;;5.34;89.73;102578.56;4187087;28;20115;-80
2021/03/21 01:34:46;;;;;;;16.75;11.45;;;5.40;99.90;;;5.12;90.51;102573.56;4187017;28;20492;-81
2021/03/21 01:36:47;;;;;;;15.90;11.00;;;5.40;99.90;;;5.02;90.83;102572.31;4185948;28;20029;-80
2021/03/21 01:38:50;;;;;;;14.35;9.55;;;5.30;99.90;;;5.07;90.06;102566.88;4178602;28;20052;-80
2021/03/21 01:41:06;;;;;;;17.80;10.32;;;5.30;99.90;;;5.03;90.65;102566.16;4174080;28;20485;-80
2021/03/21 01:43:13;;;;;;;20.90;12.95;;;5.30;99.90;;;5.05;90.06;102561.69;4172415;28;20466;-81
2021/03/21 01:45:39;;;;;;;15.35;11.07;;;5.30;99.90;;;4.96;90.23;102573.47;4176770;28;20025;-80
2021/03/21 01:47:40;;;;;;;16.35;10.55;;;5.20;99.90;;;4.76;90.42;102559.69;4184427;28;20090;-80
2021/03/21 01:49:46;;;;;;;17.20;11.05;;;5.20;99.90;;;4.85;89.88;102564.47;4185704;28;20536;-80
2021/03/21 01:51:50;;;;;;;14.73;10.48;;;5.10;99.90;;;4.68;90.31;102569.66;4176890;28;20155;-80
2021/03/21 01:53:57;;;;;;;15.98;10.48;;;5.10;99.90;;;4.64;91.51;102571.56;4180447;28;20036;-80
2021/03/21 01:56:00;;;;;;;15.70;9.35;;;5.00;99.90;;;4.62;91.45;102567.34;4185359;28;20492;-80
2021/03/21 01:58:01;;;;;;;12.48;9.43;;;4.90;99.90;;;4.59;90.55;102554.41;4174772;28;20104;-80
2021/03/21 02:00:06;;;;;;;14.13;9.82;;;4.90;99.90;;;4.59;90.17;102543.97;4178207;28;20459;-81
2021/03/21 02:02:10;;;;;;;13.63;9.15;;;4.90;99.90;;;4.63;89.18;102561.22;4185162;28;20104;-80
2021/03/21 02:04:12;;;;;;;15.43;9.80;;;4.90;99.90;;;4.55;88.83;102555.47;4185424;28;20415;-80
2021/03/21 02:06:37;;;;;;;14.32;9.73;;;4.80;99.90;;;4.41;89.22;102559.59;4175980;28;20033;-81
2021/03/21 02:08:54;;;;;;;13.05;9.13;;;4.90;99.90;;;4.41;89.76;102557.00;4183651;28;20123;-81
2021/03/21 02:11:38;;;;;;;14.27;9.70;;;4.80;99.90;;;4.29;90.01;102554.97;4186648;28;20025;-80
2021/03/21 02:13:59;;;;;;;14.70;11.05;;;4.70;99.90;;;4.29;90.67;102552.34;4184481;28;20033;-80
2021/03/21 02:16:32;;;;;;;14.10;9.90;;;4.70;99.90;;;4.14;91.45;102529.53;4185339;28;20028;-80
2021/03/21 02:19:33;;;;;;;14.50;9.73;;;4.60;99.90;;;4.20;91.43;102550.16;4195681;28;20112;-80
2021/03/21 02:21:50;;;;;;;15.68;10.43;;;4.60;99.90;;;4.28;91.24;102558.47;4184942;28;20118;-80
2021/03/21 02:24:28;;;;;;;13.15;9.30;;;4.60;99.90;;;4.38;90.55;102549.31;4184822;28;20083;-80
2021/03/21 02:26:55;;;;;;;14.98;10.43;;;4.60;99.90;;;4.28;90.58;102558.47;4182870;28;20040;-81
2021/03/21 02:30:07;;;;;;;16.08;9.55;;;4.60;99.90;;;4.25;91.89;102548.16;4186395;28;20033;-81
2021/03/21 02:32:42;;;;;;;15.18;9.25;;;4.50;99.90;;;4.47;91.37;102538.41;4161596;28;20043;-81
2021/03/21 02:35:06;;;;;;;15.20;11.07;;;4.70;99.90;;;4.46;91.87;102546.31;4150918;28;20040;-80
2021/03/21 02:37:33;;;;;;;16.43;11.17;;;4.70;99.90;;;4.35;92.70;102533.78;4168325;28;20021;-81
2021/03/21 02:39:58;;;;;;;17.20;11.50;;;4.60;99.90;;;4.54;92.75;102543.34;4183076;28;20275;-80
2021/03/21 02:42:10;;;;;;;17.23;11.25;;;4.70;99.90;;;4.42;93.97;102532.53;4174268;28;20037;-80
2021/03/21 02:44:28;;;;;;;15.95;10.07;;;4.70;99.90;;;4.47;94.09;102534.94;4180778;28;20031;-81
2021/03/21 02:46:37;;;;;;;15.30;9.70;;;4.80;99.90;;;4.41;93.56;102538.72;4173441;28;20057;-81
2021/03/21 02:48:47;;;;;;;16.20;10.88;;;4.70;99.90;;;4.47;92.57;102527.97;4184695;28;20048;-81
2021/03/21 02:51:04;;;;;;;17.25;10.85;;;4.80;99.90;;;4.61;91.90;102523.81;4181840;28;20037;-79
2021/03/21 02:53:21;;;;;;;15.50;10.73;;;4.90;99.90;;;4.63;92.41;102517.59;4183334;28;20147;-80
2021/03/21 02:55:42;;;;;;;17.73;10.65;;;5.00;99.90;;;4.75;92.83;102530.06;4163760;28;20187;-81
2021/03/21 02:58:09;;;;;;;16.85;10.82;;;5.10;99.90;;;4.83;92.79;102525.34;4167663;28;20068;-81
2021/03/21 03:00:14;;;;;;;16.38;11.32;;;5.20;99.90;;;4.79;93.11;102505.47;4177379;28;20060;-81
2021/03/21 03:02:35;;;;;;;15.07;9.73;;;5.30;99.90;;;5.02;91.58;102514.78;4184435;28;20404;-81
2021/03/21 03:04:43;;;;;;;16.30;10.85;;;5.40;99.90;;;4.97;91.65;102509.78;4173889;28;20025;-81
2021/03/21 03:06:52;;;;;;;15.00;10.27;;;5.40;99.90;;;4.97;92.79;102517.63;4179258;28;20529;-81
2021/03/21 03:09:03;;;;;;;15.43;10.73;;;5.40;99.90;;;4.95;93.71;102518.66;4183885;28;20060;-81
2021/03/21 03:11:15;;;;;;;16.90;11.02;;;5.40;99.90;;;4.99;94.11;102514.94;4173854;28;20025;-81
2021/03/21 03:13:33;;;;;;;14.23;9.98;;;5.50;99.90;;;4.95;93.95;102513.41;4179043;28;20464;-80
2021/03/21 03:15:35;;;;;;;13.70;9.77;;;5.50;99.90;;;4.98;94.67;102510.66;4183151;28;20029;-80
2021/03/21 03:17:54;;;;;;;16.42;10.05;;;5.50;99.90;;;4.99;94.00;102494.00;4176031;28;20031;-81
2021/03/21 03:20:33;;;;;;;15.93;9.73;;;5.50;99.90;;;5.12;93.31;102499.47;4183263;28;20033;-80
2021/03/21 03:22:54;;;;;;;16.67;9.98;;;5.60;99.90;;;5.09;93.15;102497.88;4176978;28;20432;-81
2021/03/21 03:25:26;;;;;;;14.63;9.43;;;5.60;99.90;;;5.14;93.78;102503.69;4200677;28;20032;-80
2021/03/21 03:27:48;;;;;;;15.63;9.88;;;5.70;99.90;;;5.26;93.69;102497.84;4177077;28;20108;-81
2021/03/21 03:29:57;;;;;;;14.63;9.35;;;5.70;99.90;;;5.31;93.59;102506.31;4183982;28;20024;-81
2021/03/21 03:32:04;;;;;;;15.68;10.27;;;5.80;99.90;;;5.28;93.28;102498.63;4167706;28;20053;-81
2021/03/21 03:34:05;;;;;;;15.80;10.60;;;5.80;99.90;;;5.14;93.63;102495.84;4176856;28;20036;-81
2021/03/21 03:36:11;;;;;;;16.35;10.15;;;5.80;99.90;;;5.22;94.29;102485.00;4180327;28;20025;-80
2021/03/21 03:38:14;;;;;;;15.90;9.73;;;5.90;99.90;;;5.20;94.50;102500.78;4167695;28;20033;-81
2021/03/21 03:40:16;;;;;;;14.27;9.77;;;5.90;99.90;;;5.14;95.29;102477.53;4177871;28;20036;-81
2021/03/21 03:42:43;;;;;;;18.65;11.32;;;5.90;99.90;;;5.39;94.91;102501.53;4178283;28;20033;-81
2021/03/21 03:44:58;;;;;;;15.05;10.27;;;6.00;99.90;;;5.53;94.92;102495.56;4185303;28;20488;-81
2021/03/21 03:47:14;;;;;;;18.98;11.95;;;6.00;99.90;;;5.58;95.50;102496.19;4185245;28;20025;-81
2021/03/21 03:50:10;;;;;;;15.13;11.13;;;6.10;99.90;;;5.62;95.29;102488.97;4184907;28;20065;-81
2021/03/21 03:52:32;;;;;;;14.57;10.27;;;6.20;99.90;;;5.72;94.99;102492.81;4166418;28;20110;-81
2021/03/21 03:54:57;;;;;;;15.13;9.73;;;6.20;99.90;;;5.69;94.62;102485.13;4185172;28;20029;-81
2021/03/21 03:57:22;;;;;;;15.88;10.15;;;6.20;99.90;;;5.75;94.76;102482.19;4167017;28;20554;-81
2021/03/21 03:59:40;;;;;;;14.90;9.52;;;6.30;99.90;;;5.83;94.51;102472.13;4171524;28;20523;-81
2021/03/21 04:02:18;;;;;;;14.70;9.45;;;6.40;99.90;;;5.88;94.44;102480.63;4184857;28;20032;-81
2021/03/21 04:04:36;;;;;;;19.15;10.93;;;6.40;99.90;;;5.94;93.67;102475.06;4185088;28;20025;-80
2021/03/21 04:06:54;;;;;;;15.85;10.25;;;6.40;99.90;;;5.99;93.22;102478.25;4183148;28;20032;-81
2021/03/21 04:09:02;;;;;;;15.43;10.75;;;6.50;99.90;;;5.92;93.83;102472.50;4182542;28;20029;-81
2021/03/21 04:11:35;;;;;;;16.63;9.88;;;6.50;99.90;;;5.97;93.40;102490.59;4174321;28;20033;-81
2021/03/21 04:13:42;;;;;;;15.82;10.98;;;6.50;99.90;;;6.02;93.49;102472.84;4182836;28;20028;-81
2021/03/21 04:15:49;;;;;;;16.88;10.68;;;6.50;99.90;;;6.00;93.04;102469.47;4183065;28;20033;-81
2021/03/21 04:18:30;;;;;;;13.93;10.00;;;6.60;99.90;;;6.08;93.16;102477.75;4176637;28;20025;-80
2021/03/21 04:20:40;;;;;;;21.38;9.98;;;6.60;99.90;;;6.09;92.84;102480.28;4172974;28;20032;-80
2021/03/21 04:22:56;;;;;;;15.85;10.60;;;6.60;99.90;;;6.10;92.51;102476.72;4184738;28;20033;-80
2021/03/21 04:25:27;;;;;;;13.68;9.45;;;6.60;99.90;;;6.02;91.60;102459.75;4166882;28;20546;-81
2021/03/21 04:28:07;;;;;;;12.63;8.85;;;6.70;99.90;;;6.06;91.82;102483.06;4176834;28;20032;-81
2021/03/21 04:30:49;;;;;;;12.10;9.10;;;6.60;99.90;;;6.07;92.38;102491.78;4170133;28;20037;-81
2021/03/21 04:32:51;;;;;;;14.77;9.95;;;6.60;99.90;;;6.08;92.52;102493.47;4133662;28;20022;-82
2021/03/21 04:34:57;;;;;;;15.75;10.48;;;6.60;99.90;;;6.09;92.60;102496.00;4162220;28;20496;-81
2021/03/21 04:36:59;;;;;;;12.80;9.88;;;6.60;99.90;;;6.11;92.32;102482.81;4183392;28;20025;-80
2021/03/21 04:39:18;;;;;;;13.52;9.98;;;6.60;99.90;;;6.07;92.83;102462.97;4176622;28;20025;-81
2021/03/21 04:42:03;;;;;;;15.50;10.25;;;6.70;99.90;;;6.15;93.18;102489.59;4169628;28;20032;-81
2021/03/21 04:44:19;;;;;;;18.52;11.05;;;6.70;99.90;;;6.12;93.51;102479.28;4166272;28;20492;-81
2021/03/21 04:46:36;;;;;;;15.48;10.05;;;6.70;99.90;;;6.15;92.87;102468.63;4172534;28;20037;-81
2021/03/21 04:48:38;;;;;;;15.50;10.10;;;6.70;99.90;;;6.23;92.33;102469.03;4182966;28;20488;-81
2021/03/21 04:50:39;;;;;;;13.30;9.85;;;6.80;99.90;;;6.23;92.28;102465.56;4179019;28;20067;-81
2021/03/21 04:53:27;;;;;;;16.65;10.85;;;6.80;99.90;;;6.34;91.77;102478.91;4182295;28;20033;-81
2021/03/21 04:55:33;;;;;;;12.68;9.60;;;6.90;99.90;;;6.40;91.83;102471.56;4183151;28;20029;-81
2021/03/21 04:57:46;;;;;;;14.98;10.35;;;6.80;99.90;;;6.36;91.54;102464.78;4166459;28;20444;-81
2021/03/21 04:59:49;;;;;;;14.27;10.30;;;6.90;99.90;;;6.45;91.04;102471.31;4174416;28;20025;-81
2021/03/21 05:02:23;;;;;;;14.27;10.27;;;6.90;99.90;;;6.40;91.08;102468.94;4178907;28;20112;-82
2021/03/21 05:04:34;;;;;;;15.10;10.73;;;6.90;99.90;;;6.36;90.95;102467.41;4182737;28;20021;-81
2021/03/21 05:06:58;;;;;;;14.43;10.07;;;6.90;99.90;;;6.27;91.81;102440.91;4176127;28;20040;-81
2021/03/21 05:09:05;;;;;;;14.90;10.40;;;7.00;99.90;;;6.32;91.12;102441.47;4169975;28;20021;-81
2021/03/21 05:11:08;;;;;;;13.50;9.95;;;6.90;99.90;;;6.31;92.01;102453.72;4183024;28;20112;-81
2021/03/21 05:13:41;;;;;;;14.02;10.55;;;6.90;99.90;;;6.28;92.00;102442.56;4160640;28;20025;-81
2021/03/21 05:15:49;;;;;;;14.02;10.43;;;6.90;99.90;;;6.31;92.44;102450.25;4185668;28;20510;-81
2021/03/21 05:18:28;;;;;;;13.90;10.65;;;6.90;99.90;;;6.40;92.25;102457.59;4183204;28;20172;-81
2021/03/21 05:21:18;;;;;;;13.85;10.15;;;6.90;99.90;;;6.36;93.06;102443.00;4117404;28;20038;-81
2021/03/21 05:23:35;;;;;;;13.90;9.35;;;7.00;99.90;;;6.32;92.69;102454.56;4164234;28;20048;-82
2021/03/21 05:25:47;;;;;;;14.40;10.77;;;6.90;99.90;;;6.17;93.41;102431.84;4184321;28;20502;-81
2021/03/21 05:28:20;;;;;;;17.33;11.48;;;6.90;99.90;;;6.40;93.23;102468.94;4184902;28;20488;-80
2021/03/21 05:30:31;;;;;;;17.98;11.88;;;7.00;99.90;;;6.48;92.81;102469.31;4183303;28;20435;-81
2021/03/21 05:32:33;;;;;;;17.88;11.43;;;7.00;99.90;;;6.52;92.31;102468.22;4180133;28;20155;-81
2021/03/21 05:34:34;;;;;;;18.05;11.48;;;7.10;99.90;;;6.55;92.68;102464.59;4185978;28;20028;-81
2021/03/21 05:37:01;;;;;;;15.43;10.75;;;7.10;99.90;;;6.54;92.69;102457.69;4186113;28;20484;-82
2021/03/21 05:39:26;;;;;;;15.95;10.68;;;7.20;99.90;;;6.63;92.39;102473.69;4180586;28;20048;-81
2021/03/21 05:41:48;;;;;;;14.38;10.52;;;7.20;99.90;;;6.71;92.39;102470.66;4186880;28;20489;-81
2021/03/21 05:44:11;;;;;;;15.52;11.32;;;7.20;99.90;;;6.85;90.67;102483.78;4187104;28;20028;-81
2021/03/21 05:46:37;;;;;;;15.25;10.65;;;7.20;99.90;;;6.89;90.10;102484.47;4186859;28;20053;-82
2021/03/21 05:49:25;;;;;;;13.48;10.32;;;7.30;99.90;;;6.79;90.91;102478.06;4185707;28;20033;-82
2021/03/21 05:52:02;;;;;;;14.13;10.25;;;7.30;99.90;;;6.78;91.45;102479.00;4175986;28;20081;-81
2021/03/21 05:54:22;;;;;;;14.20;10.23;;;7.30;99.90;;;6.67;91.69;102475.22;4186788;28;20033;-81
2021/03/21 05:57:06;;;;;;;14.90;9.73;;;7.20;99.90;;;6.67;91.92;102482.22;4186607;28;20028;-81
2021/03/21 05:59:27;;;;;;;15.10;10.38;;;7.30;99.90;;;6.56;91.82;102461.88;4186570;28;20036;-81
2021/03/21 06:01:55;;;;;;;13.75;10.35;;;7.20;99.90;;;6.63;92.46;102475.50;4183803;28;20063;-82
2021/03/21 06:04:42;;;;;;;15.43;10.45;;;7.20;99.90;;;6.65;92.89;102479.72;4184590;28;20128;-82
2021/03/21 06:07:32;;;;;;;14.48;9.80;;;7.20;99.90;;;6.65;93.05;102471.00;4186723;28;20045;-82
2021/03/21 06:10:03;;;;;;;17.45;10.95;;;7.20;99.90;;;6.72;93.24;102474.94;4186682;28;20029;-82
2021/03/21 06:12:47;;;;;;;15.63;11.05;;;7.20;99.90;;;6.77;92.10;102472.06;4186226;28;20025;-81
2021/03/21 06:15:38;;;;;;;18.00;11.55;;;7.30;99.90;;;6.76;92.08;102478.22;4186384;28;20036;-82
2021/03/21 06:18:18;;;;;;;13.88;9.80;;;7.30;99.90;;;6.74;92.54;102472.25;4186520;28;20025;-81
2021/03/21 06:21:08;;;;;;;17.48;11.10;;;7.30;99.90;;;6.97;91.38;102475.22;4183730;28;20035;-81
2021/03/21 06:23:27;;;;;;;15.93;10.75;;;7.30;99.90;;;6.94;90.66;102485.03;4182483;28;20041;-81
2021/03/21 06:25:45;;;;;;;15.73;10.82;;;7.40;99.90;;;6.98;90.69;102478.69;4186431;28;20029;-81
2021/03/21 06:28:10;;;;;;;15.50;11.13;;;7.40;99.90;;;7.07;89.76;102473.75;4184830;28;20051;-81
2021/03/21 06:30:21;;;;;;;17.23;11.15;;;7.50;99.90;;;7.01;91.01;102486.38;4171999;28;20024;-81
2021/03/21 06:32:47;;;;;;;17.75;10.98;;;7.50;99.90;;;7.05;90.38;102491.31;4189566;28;20490;-80
2021/03/21 06:35:16;;;;;;;16.17;10.90;;;7.50;99.90;;;7.00;91.54;102501.25;4189206;28;20037;-81
2021/03/21 06:37:53;;;;;;;17.25;11.30;;;7.50;99.90;;;7.06;91.24;102497.44;4184748;28;20033;-82
2021/03/21 06:40:42;;;;;;;18.67;11.00;;;7.50;99.90;;;7.04;90.68;102492.28;4181665;28;20025;-81
2021/03/21 06:43:11;;;;;;;14.40;10.90;;;7.60;99.90;;;7.08;91.30;102499.03;4183112;28;20048;-78
2021/03/21 06:45:55;;;;;;;16.13;10.57;;;7.60;99.90;;;7.14;90.75;102493.41;4182502;28;20109;-78
2021/03/21 06:48:33;;;;;;;14.25;9.60;;;7.60;99.90;;;7.05;91.45;102493.09;4172507;28;20033;-77
2021/03/21 06:51:25;;;;;;;17.98;11.43;;;7.60;99.90;;;7.24;89.77;102499.81;4185395;28;20044;-76
2021/03/21 06:53:35;;;;;;;15.10;11.48;;;7.80;99.90;;;7.08;90.44;102492.91;4169730;28;20037;-77
2021/03/21 06:55:57;;;;;;;15.85;11.07;;;7.70;99.90;;;7.03;91.20;102493.22;4185825;28;20136;-76
2021/03/21 06:58:54;;;;;;;17.58;11.52;;;7.60;99.90;;;7.09;90.71;102492.84;4184289;28;20033;-77
2021/03/21 07:01:40;;;;;;;17.95;10.70;;;7.70;99.90;;;7.14;90.90;102495.19;4143337;28;20508;-77
2021/03/21 07:04:20;;;;;;;16.65;11.23;;;7.70;99.90;;;7.19;90.23;102496.63;4184185;28;20033;-77
2021/03/21 07:07:01;;;;;;;18.40;11.02;;;7.70;99.90;;;7.22;91.15;102504.31;4185738;28;20029;-77
2021/03/21 07:09:41;;;;;;;18.35;11.80;;;7.80;99.90;;;7.27;91.22;102490.91;4185548;28;20396;-77
2021/03/21 07:12:15;;;;;;;16.83;10.98;;;7.80;99.90;;;7.23;90.92;102492.88;4182480;28;20048;-77
2021/03/21 07:14:53;;;;;;;20.02;11.75;;;7.80;99.90;;;7.30;91.72;102492.50;4184764;28;20025;-78
2021/03/21 07:17:24;;;;;;;18.63;12.73;;;7.90;99.90;;;7.30;91.50;102495.97;4181792;28;20029;-77
2021/03/21 07:20:18;;;;;;;15.52;11.20;;;7.90;99.90;;;7.30;91.27;102488.09;4176426;28;20027;-77
2021/03/21 07:23:00;;;;;;;19.08;11.65;;;7.90;99.90;;;7.27;91.75;102483.03;4184783;28;20068;-79
2021/03/21 07:25:54;;;;;;;21.75;12.02;;;7.90;99.90;;;7.28;92.20;102473.38;4117929;28;20031;-77
2021/03/21 07:28:42;;;;;;;17.08;12.30;;;8.00;99.90;;;7.42;92.23;102471.59;4072090;29;20048;-77
2021/03/21 07:31:13;;;;;;;16.42;11.02;;;8.00;99.90;;;7.46;91.98;102467.88;4160463;28;20029;-77
2021/03/21 07:33:34;;;;;;;15.90;12.07;;;8.10;99.90;;;7.55;91.85;102472.56;4184049;28;20439;-77
2021/03/21 07:35:40;;;;;;;19.23;12.63;;;8.20;99.90;;;7.64;91.10;102465.88;4183565;28;20508;-75
2021/03/21 07:38:02;;;;;;;18.50;12.73;;;8.20;99.90;;;7.68;90.98;102468.22;4183450;28;20032;-76
2021/03/21 07:40:49;;;;;;;17.83;11.82;;;8.30;99.90;;;7.72;91.46;102463.63;4171491;28;20025;-76
2021/03/21 07:43:31;;;;;;;19.77;12.20;;;8.30;99.90;;;7.75;91.85;102463.44;4168808;28;20052;-77
2021/03/21 07:45:53;;;;;;;20.58;11.85;;;8.40;99.90;;;7.85;91.06;102458.44;4168357;28;20532;-76
2021/03/21 07:48:25;;;;;;;24.30;13.60;;;8.50;99.90;;;7.89;91.30;102452.03;4171639;28;20032;-76
2021/03/21 07:50:48;;;;;;;19.98;11.98;;;8.60;99.90;;;7.98;89.94;102461.97;4183733;28;20075;-76
2021/03/21 07:53:21;;;;;;;18.80;11.95;;;8.60;99.90;;;8.03;90.30;102454.66;4184306;28;20523;-77
2021/03/21 07:55:42;;;;;;;19.83;13.38;;;8.70;99.90;;;8.25;89.17;102465.47;4183073;28;20118;-78
2021/03/21 07:58:09;;;;;;;18.88;12.13;;;8.80;99.90;;;8.36;88.53;102476.19;4181870;28;20040;-77
2021/03/21 08:00:13;;;;;;;19.83;13.68;;;8.80;99.90;;;8.46;88.46;102481.66;4179141;28;20025;-77
2021/03/21 08:02:24;;;;;;;18.55;12.75;;;9.00;99.90;;;8.34;88.84;102464.91;4183000;28;20037;-75
2021/03/21 08:04:33;;;;;;;21.33;12.38;;;9.00;99.90;;;8.37;88.54;102456.81;4156210;28;20036;-75
2021/03/21 08:06:54;;;;;;;17.50;12.23;;;9.00;99.90;;;8.51;88.48;102476.97;4182645;28;20039;-75
2021/03/21 08:09:25;;;;;;;22.88;13.20;;;9.10;99.90;;;8.58;88.47;102481.72;4181415;28;20017;-76
2021/03/21 08:11:32;;;;;;;19.60;12.55;;;9.10;99.90;;;8.59;89.01;102480.78;4173082;28;20631;-76
2021/03/21 08:13:42;;;;;;;22.13;12.60;;;9.20;99.90;;;8.55;88.65;102476.66;4168302;28;20052;-76
2021/03/21 08:15:43;;;;;;;21.10;13.85;;;9.20;99.90;;;8.69;87.84;102473.94;4171908;28;20036;-75
2021/03/21 08:18:00;;;;;;;22.13;13.05;;;9.20;99.90;;;8.70;88.65;102475.66;4174837;28;20111;-76
2021/03/21 08:20:16;;;;;;;19.42;12.80;;;9.30;99.90;;;8.69;87.46;102457.34;4181534;28;20029;-76
2021/03/21 08:22:22;;;;;;;17.33;12.35;;;9.20;99.90;;;8.81;88.64;102478.41;4184207;28;20037;-76
2021/03/21 08:24:34;;;;;;;19.83;12.65;;;9.40;99.90;;;8.73;88.22;102459.66;4182259;28;20021;-74
2021/03/21 08:26:37;;;;;;;19.92;12.05;;;9.40;99.90;;;8.77;88.09;102479.56;4181297;28;20541;-76
2021/03/21 08:29:12;;;;;;;21.10;13.20;;;9.50;99.90;;;8.74;87.52;102463.97;4171494;28;20021;-75
2021/03/21 08:31:39;;;;;;;19.17;12.07;;;9.40;99.90;;;8.82;88.23;102464.31;4182596;28;20037;-75
2021/03/21 08:33:44;;;;;;;19.40;12.55;;;9.50;99.90;;;8.89;87.28;102470.00;4176092;28;20035;-75
2021/03/21 08:35:45;;;;;;;20.65;13.52;;;9.60;99.90;;;8.93;86.98;102460.13;4186317;28;20175;-77
2021/03/21 08:37:51;;;;;;;20.38;12.77;;;9.60;99.90;;;8.86;87.10;102460.53;4170216;28;20487;-76
2021/03/21 08:40:00;;;;;;;19.30;13.68;;;9.70;99.90;;;8.94;87.56;102469.69;4177929;28;20040;-77
2021/03/21 08:42:02;;;;;;;19.88;12.00;;;9.70;99.90;;;8.91;88.04;102476.00;4157850;28;20033;-76
2021/03/21 08:44:06;;;;;;;19.02;12.88;;;9.70;99.90;;;8.99;86.70;102470.25;4178194;28;20037;-77
2021/03/21 08:46:27;;;;;;;18.75;12.05;;;9.70;99.90;;;8.92;87.85;102476.84;4183192;28;20074;-77
2021/03/21 08:48:39;;;;;;;20.77;12.40;;;9.80;99.90;;;8.99;88.15;102484.22;4166938;28;20040;-77
2021/03/21 08:50:45;;;;;;;19.27;12.38;;;9.80;99.90;;;9.06;87.10;102484.66;4180127;28;20041;-77
2021/03/21 08:52:46;;;;;;;19.27;12.15;;;9.80;99.90;;;9.04;86.20;102481.28;4184027;28;20033;-77
2021/03/21 08:54:52;;;;;;;19.45;12.10;;;9.80;99.90;;;9.10;86.82;102479.09;4183501;28;20110;-76
2021/03/21 08:56:56;;;;;;;18.50;13.13;;;9.90;99.90;;;9.10;87.22;102487.00;4176633;28;20025;-76
2021/03/21 08:59:06;;;;;;;18.17;12.80;;;10.00;99.90;;;9.18;87.45;102479.41;4181900;28;20561;-76
2021/03/21 09:01:14;;;;;;;19.15;12.63;;;10.00;99.90;;;9.26;87.22;102481.50;4184491;28;20040;-76
2021/03/21 09:03:30;;;;;;;20.40;12.25;;;10.00;99.90;;;9.30;87.22;102478.56;4187274;28;20033;-77
2021/03/21 09:05:35;;;;;;;20.25;12.57;;;10.10;99.90;;;9.36;86.79;102474.66;4186152;28;20075;-76
2021/03/21 09:07:38;;;;;;;18.73;12.27;;;10.00;99.90;;;9.46;85.90;102475.72;4174416;28;20124;-76
2021/03/21 09:09:40;;;;;;;17.77;12.27;;;10.20;99.90;;;9.48;85.89;102484.34;4179191;28;20040;-76
2021/03/21 09:11:43;;;;;;;17.27;12.00;;;10.20;99.90;;;9.49;85.96;102485.19;4187271;28;20033;-75
2021/03/21 09:14:03;;;;;;;20.02;11.98;;;10.20;99.90;;;9.31;86.49;102484.69;4187039;28;20388;-75
2021/03/21 09:16:10;;;;;;;20.55;11.98;;;10.20;99.90;;;9.28;86.44;102485.75;4187409;28;20045;-75
2021/03/21 09:18:17;;;;;;;16.75;12.30;;;10.20;99.90;;;8.80;88.98;102489.03;4186299;28;20537;-75
2021/03/21 09:20:18;;;;;;;20.20;13.73;;;10.10;99.90;;;8.90;89.55;102490.94;4186170;28;20086;-75
2021/03/21 09:22:39;;;;;;;16.88;12.45;;;10.10;99.90;;;8.92;88.52;102480.31;4169510;28;20025;-75
2021/03/21 09:24:40;;;;;;;15.43;11.10;;;10.00;99.90;;;9.05;86.65;102493.50;4180885;28;20516;-75
2021/03/21 09:26:45;;;;;;;17.73;12.10;;;10.20;99.90;;;9.20;87.55;102490.66;4184027;28;20052;-75
2021/03/21 09:28:56;;;;;;;15.63;11.02;;;10.30;99.90;;;9.43;86.67;102500.50;4202520;28;20056;-75
2021/03/21 09:30:58;;;;;;;18.35;11.60;;;10.40;99.90;;;9.56;86.08;102483.84;4185463;28;20248;-75